createdAt,value
2018-10-18T00:02:20.943Z,99.90
2018-10-18T00:04:50.027Z,99.90
2018-10-18T00:07:19.393Z,99.90
2018-10-18T00:09:47.855Z,99.90
2018-10-18T00:12:16.671Z,99.90
2018-10-18T00:14:44.998Z,99.90
2018-10-18T00:17:17.856Z,99.90
2018-10-18T00:19:49.255Z,99.90
2018-10-18T00:22:17.735Z,99.90
2018-10-18T00:24:46.327Z,99.90
2018-10-18T00:27:14.924Z,99.90
2018-10-18T00:29:43.349Z,99.90
2018-10-18T00:32:12.148Z,99.90
2018-10-18T00:34:40.465Z,99.90
2018-10-18T00:37:09.319Z,99.90
2018-10-18T00:39:38.080Z,99.90
2018-10-18T00:42:06.622Z,99.90
2018-10-18T00:44:35.004Z,99.90
2018-10-18T00:47:03.391Z,99.90
2018-10-18T00:49:31.737Z,99.90
2018-10-18T00:52:00.108Z,99.90
2018-10-18T00:54:28.740Z,99.90
2018-10-18T00:56:57.293Z,99.90
2018-10-18T00:59:25.989Z,99.90
2018-10-18T01:01:54.555Z,99.90
2018-10-18T01:04:22.988Z,99.90
2018-10-18T01:06:51.502Z,99.90
2018-10-18T01:09:19.984Z,99.90
2018-10-18T01:11:48.504Z,99.90
2018-10-18T01:14:17.105Z,99.90
2018-10-18T01:16:45.337Z,99.90
2018-10-18T01:19:13.764Z,99.90
2018-10-18T01:21:42.469Z,99.90
2018-10-18T01:24:10.977Z,99.90
2018-10-18T01:26:39.721Z,99.90
2018-10-18T01:29:08.217Z,99.90
2018-10-18T01:31:36.788Z,99.90
2018-10-18T01:34:05.179Z,99.90
2018-10-18T01:36:33.907Z,99.90
2018-10-18T01:39:02.268Z,99.90
2018-10-18T01:41:30.711Z,99.90
2018-10-18T01:43:59.048Z,99.90
2018-10-18T01:46:27.481Z,99.90
2018-10-18T01:48:55.930Z,99.90
2018-10-18T01:51:24.329Z,99.90
2018-10-18T01:53:52.890Z,99.90
2018-10-18T01:56:21.309Z,99.90
2018-10-18T01:58:49.757Z,99.90
2018-10-18T02:01:18.286Z,99.90
2018-10-18T02:03:46.913Z,99.90
2018-10-18T02:06:15.527Z,99.90
2018-10-18T02:08:43.900Z,99.90
2018-10-18T02:11:12.317Z,99.90
2018-10-18T02:13:40.942Z,99.90
2018-10-18T02:16:09.414Z,99.90
2018-10-18T02:18:38.565Z,99.90
2018-10-18T02:21:07.293Z,99.90
2018-10-18T02:23:35.983Z,99.90
2018-10-18T02:26:04.315Z,99.90
2018-10-18T02:28:32.745Z,99.90
2018-10-18T02:31:01.220Z,99.90
2018-10-18T02:33:29.576Z,99.90
2018-10-18T02:35:58.008Z,99.90
2018-10-18T02:38:26.348Z,99.90
2018-10-18T02:40:54.694Z,99.90
2018-10-18T02:43:23.114Z,99.90
2018-10-18T02:45:51.726Z,99.90
2018-10-18T02:48:20.393Z,99.90
2018-10-18T02:50:48.720Z,99.90
2018-10-18T02:53:17.143Z,99.90
2018-10-18T02:55:45.494Z,99.90
2018-10-18T02:58:13.941Z,99.90
2018-10-18T03:00:42.291Z,99.90
2018-10-18T03:03:10.654Z,99.90
2018-10-18T03:05:39.028Z,99.90
2018-10-18T03:08:07.499Z,99.90
2018-10-18T03:10:35.879Z,99.90
2018-10-18T03:13:04.384Z,99.90
2018-10-18T03:15:32.721Z,99.90
2018-10-18T03:18:01.169Z,99.90
2018-10-18T03:20:29.678Z,99.90
2018-10-18T03:22:58.080Z,99.90
2018-10-18T03:25:26.526Z,99.90
2018-10-18T03:27:54.986Z,99.90
2018-10-18T03:30:23.517Z,99.90
2018-10-18T03:32:51.850Z,99.90
2018-10-18T03:35:20.330Z,99.90
2018-10-18T03:37:48.678Z,99.90
2018-10-18T03:40:17.047Z,99.90
2018-10-18T03:42:45.463Z,99.90
2018-10-18T03:45:13.939Z,99.90
2018-10-18T03:47:42.268Z,99.90
2018-10-18T03:50:10.615Z,99.90
2018-10-18T03:52:39.096Z,99.90
2018-10-18T03:55:07.463Z,99.90
2018-10-18T03:57:35.805Z,99.90
2018-10-18T04:00:04.488Z,99.90
2018-10-18T04:02:32.890Z,99.90
2018-10-18T04:05:01.221Z,99.90
2018-10-18T04:07:29.609Z,99.90
2018-10-18T04:09:58.032Z,99.90
2018-10-18T04:12:26.580Z,99.90
2018-10-18T04:14:54.966Z,99.90
2018-10-18T04:17:23.393Z,99.90
2018-10-18T04:19:51.968Z,99.90
2018-10-18T04:22:20.641Z,99.90
2018-10-18T04:24:49.039Z,99.90
2018-10-18T04:27:17.427Z,99.90
2018-10-18T04:29:45.880Z,99.90
2018-10-18T04:32:14.380Z,99.90
2018-10-18T04:34:42.750Z,99.90
2018-10-18T04:37:11.143Z,99.90
2018-10-18T04:39:39.499Z,99.90
2018-10-18T04:42:07.921Z,99.90
2018-10-18T04:44:36.226Z,99.90
2018-10-18T04:47:05.409Z,99.90
2018-10-18T04:49:33.844Z,99.90
2018-10-18T04:52:02.287Z,99.90
2018-10-18T04:54:30.692Z,99.90
2018-10-18T04:56:59.380Z,99.90
2018-10-18T04:59:27.664Z,99.90
2018-10-18T05:01:56.088Z,99.90
2018-10-18T05:04:24.438Z,99.90
2018-10-18T05:06:52.862Z,99.90
2018-10-18T05:09:21.330Z,99.90
2018-10-18T05:11:49.733Z,99.90
2018-10-18T05:14:18.123Z,99.90
2018-10-18T05:16:47.247Z,99.90
2018-10-18T05:19:15.815Z,99.90
2018-10-18T05:21:43.991Z,99.90
2018-10-18T05:24:12.388Z,99.90
2018-10-18T05:26:40.899Z,99.90
2018-10-18T05:29:09.282Z,99.90
2018-10-18T05:31:37.981Z,99.90
2018-10-18T05:34:06.336Z,99.90
2018-10-18T05:36:34.671Z,99.90
2018-10-18T05:39:04.103Z,99.90
2018-10-18T05:41:32.489Z,99.90
2018-10-18T05:44:01.104Z,99.90
2018-10-18T05:46:29.581Z,99.90
2018-10-18T05:48:58.386Z,99.90
2018-10-18T05:51:26.801Z,99.90
2018-10-18T05:53:55.379Z,99.90
2018-10-18T05:56:23.841Z,99.90
2018-10-18T05:58:52.297Z,99.90
2018-10-18T06:01:20.776Z,99.90
2018-10-18T06:03:49.205Z,99.90
2018-10-18T06:06:17.698Z,99.90
2018-10-18T06:08:46.158Z,99.90
2018-10-18T06:11:22.996Z,99.90
2018-10-18T06:13:51.957Z,99.90
2018-10-18T06:16:20.436Z,99.90
2018-10-18T06:18:49.086Z,99.90
2018-10-18T06:21:17.567Z,99.90
2018-10-18T06:23:46.171Z,99.90
2018-10-18T06:26:14.669Z,99.90
2018-10-18T06:28:43.249Z,99.90
2018-10-18T06:31:11.921Z,99.90
2018-10-18T06:33:40.349Z,99.80
2018-10-18T06:36:09.400Z,99.70
2018-10-18T06:38:37.942Z,99.70
2018-10-18T06:41:07.431Z,99.50
2018-10-18T06:43:40.401Z,99.60
2018-10-18T06:46:11.023Z,99.60
2018-10-18T06:48:40.945Z,99.40
2018-10-18T06:51:09.675Z,99.30
2018-10-18T06:53:39.912Z,99.30
2018-10-18T06:56:08.288Z,99.40
2018-10-18T06:58:36.973Z,99.50
2018-10-18T07:01:05.660Z,99.50
2018-10-18T07:03:34.109Z,99.40
2018-10-18T07:06:03.422Z,99.40
2018-10-18T07:08:32.028Z,99.10
2018-10-18T07:11:01.767Z,98.90
2018-10-18T07:13:30.072Z,98.90
2018-10-18T07:15:58.578Z,98.80
2018-10-18T07:18:27.149Z,98.60
2018-10-18T07:20:55.546Z,98.30
2018-10-18T07:23:24.221Z,98.00
2018-10-18T07:25:53.978Z,97.60
2018-10-18T07:28:22.621Z,97.40
2018-10-18T07:30:51.532Z,97.10
2018-10-18T07:33:20.093Z,96.90
2018-10-18T07:35:48.554Z,96.80
2018-10-18T07:38:17.141Z,96.80
2018-10-18T07:40:45.741Z,97.00
2018-10-18T07:43:14.317Z,97.30
2018-10-18T07:45:42.784Z,96.40
2018-10-18T07:48:11.404Z,96.50
2018-10-18T07:50:40.207Z,96.60
2018-10-18T07:53:10.406Z,96.40
2018-10-18T07:55:39.105Z,96.40
2018-10-18T07:58:07.516Z,96.20
2018-10-18T08:00:36.161Z,96.10
2018-10-18T08:03:05.830Z,96.50
2018-10-18T08:05:34.456Z,96.20
2018-10-18T08:08:02.998Z,96.40
2018-10-18T08:10:31.474Z,95.90
2018-10-18T08:13:00.020Z,96.20
2018-10-18T08:15:29.090Z,96.10
2018-10-18T08:17:58.581Z,96.10
2018-10-18T08:20:27.210Z,96.20
2018-10-18T08:22:56.152Z,96.20
2018-10-18T08:25:25.071Z,96.40
2018-10-18T08:27:53.738Z,96.40
2018-10-18T08:30:22.893Z,96.10
2018-10-18T08:32:52.088Z,95.60
2018-10-18T08:35:21.875Z,95.40
2018-10-18T08:37:52.059Z,95.40
2018-10-18T08:40:21.552Z,95.70
2018-10-18T08:42:50.024Z,95.50
2018-10-18T08:45:18.593Z,95.10
2018-10-18T08:47:47.211Z,94.20
2018-10-18T08:50:16.097Z,94.50
2018-10-18T08:52:44.715Z,94.20
2018-10-18T08:55:14.574Z,93.60
2018-10-18T08:57:43.749Z,93.30
2018-10-18T09:00:13.310Z,91.70
2018-10-18T09:02:42.938Z,85.90
2018-10-18T09:05:11.616Z,84.90
2018-10-18T09:07:40.581Z,85.10
2018-10-18T09:10:09.554Z,77.90
2018-10-18T09:12:38.115Z,70.00
2018-10-18T09:15:07.767Z,73.80
2018-10-18T09:17:36.367Z,76.10
2018-10-18T09:20:05.546Z,80.80
2018-10-18T09:22:34.177Z,81.80
2018-10-18T09:25:02.773Z,81.10
2018-10-18T09:27:31.446Z,74.00
2018-10-18T09:30:00.420Z,66.60
2018-10-18T09:32:29.366Z,57.80
2018-10-18T09:34:58.006Z,55.80
2018-10-18T09:37:26.581Z,54.40
2018-10-18T09:39:56.172Z,48.20
2018-10-18T09:42:24.777Z,43.00
2018-10-18T09:44:53.309Z,41.80
2018-10-18T09:47:22.677Z,37.70
2018-10-18T09:49:51.534Z,32.90
2018-10-18T09:52:20.617Z,33.30
2018-10-18T09:54:51.439Z,38.00
2018-10-18T09:57:20.312Z,42.30
2018-10-18T09:59:48.839Z,43.60
2018-10-18T10:02:21.623Z,47.10
2018-10-18T10:04:50.222Z,47.40
2018-10-18T10:07:18.875Z,51.80
2018-10-18T10:09:47.849Z,52.90
2018-10-18T10:12:16.354Z,51.90
2018-10-18T10:14:44.742Z,49.40
2018-10-18T10:17:13.789Z,43.80
2018-10-18T10:19:42.380Z,42.40
2018-10-18T10:22:10.804Z,43.00
2018-10-18T10:24:40.010Z,41.00
2018-10-18T10:27:08.707Z,40.60
2018-10-18T10:29:37.339Z,41.00
2018-10-18T10:32:05.952Z,41.60
2018-10-18T10:34:34.446Z,42.30
2018-10-18T10:37:03.716Z,44.00
2018-10-18T10:39:32.326Z,44.20
2018-10-18T10:42:00.969Z,45.80
2018-10-18T10:44:29.393Z,45.90
2018-10-18T10:46:57.850Z,44.70
2018-10-18T10:49:26.488Z,43.40
2018-10-18T10:51:54.999Z,39.60
2018-10-18T10:54:23.839Z,36.90
2018-10-18T10:56:52.428Z,32.70
2018-10-18T10:59:21.505Z,31.90
2018-10-18T11:01:50.086Z,32.10
2018-10-18T11:04:18.682Z,31.30
2018-10-18T11:06:47.030Z,32.60
2018-10-18T11:09:15.990Z,30.20
2018-10-18T11:11:44.381Z,30.00
2018-10-18T11:14:14.246Z,30.00
2018-10-18T11:16:43.130Z,27.30
2018-10-18T11:19:12.328Z,28.00
2018-10-18T11:21:42.002Z,31.20
2018-10-18T11:24:10.723Z,33.60
2018-10-18T11:26:39.064Z,37.10
2018-10-18T11:29:08.499Z,36.90
2018-10-18T11:31:37.361Z,36.30
2018-10-18T11:34:08.956Z,37.10
2018-10-18T11:36:39.404Z,34.80
2018-10-18T11:39:10.261Z,33.80
2018-10-18T11:41:39.230Z,31.60
2018-10-18T11:44:09.885Z,30.10
2018-10-18T11:46:39.385Z,29.90
2018-10-18T11:49:08.646Z,30.30
2018-10-18T11:51:38.694Z,29.50
2018-10-18T11:54:07.859Z,29.70
2018-10-18T11:56:38.703Z,31.20
2018-10-18T11:59:08.145Z,33.10
2018-10-18T12:01:38.924Z,33.60
2018-10-18T12:04:07.862Z,33.40
2018-10-18T12:06:37.090Z,33.50
2018-10-18T12:09:10.286Z,32.60
2018-10-18T12:11:38.965Z,31.30
2018-10-18T12:14:08.290Z,29.40
2018-10-18T12:16:37.292Z,28.30
2018-10-18T12:19:07.493Z,27.50
2018-10-18T12:21:36.114Z,26.50
2018-10-18T12:24:06.018Z,26.20
2018-10-18T12:26:34.740Z,27.70
2018-10-18T12:29:03.467Z,31.90
2018-10-18T12:31:32.409Z,38.10
2018-10-18T12:34:01.184Z,40.10
2018-10-18T12:36:31.928Z,42.10
2018-10-18T12:39:01.291Z,41.30
2018-10-18T12:41:31.460Z,40.10
2018-10-18T12:44:04.063Z,40.00
2018-10-18T12:46:33.536Z,39.60
2018-10-18T12:49:04.049Z,39.80
2018-10-18T12:51:38.270Z,42.00
2018-10-18T12:54:21.615Z,43.30
2018-10-18T12:56:51.880Z,41.20
2018-10-18T12:59:22.851Z,39.50
2018-10-18T13:01:52.271Z,40.80
2018-10-18T13:04:20.900Z,40.70
2018-10-18T13:06:49.590Z,42.10
2018-10-18T13:09:18.265Z,42.20
2018-10-18T13:11:46.624Z,43.00
2018-10-18T13:14:16.850Z,44.20
2018-10-18T13:16:45.356Z,46.70
2018-10-18T13:19:14.804Z,48.10
2018-10-18T13:21:43.770Z,49.50
2018-10-18T13:24:12.684Z,49.90
2018-10-18T13:26:41.385Z,51.10
2018-10-18T13:29:10.234Z,53.70
2018-10-18T13:31:38.888Z,53.60
2018-10-18T13:34:08.654Z,56.50
2018-10-18T13:36:37.500Z,56.50
2018-10-18T13:39:11.944Z,57.00
2018-10-18T13:41:40.344Z,61.00
2018-10-18T13:44:09.456Z,61.70
2018-10-18T13:46:40.424Z,61.50
2018-10-18T13:49:09.072Z,60.30
2018-10-18T13:51:38.909Z,60.00
2018-10-18T13:54:07.774Z,58.00
2018-10-18T13:56:36.207Z,60.90
2018-10-18T13:59:05.406Z,61.70
2018-10-18T14:01:33.752Z,61.80
2018-10-18T14:04:03.885Z,62.60
2018-10-18T14:06:32.433Z,64.00
2018-10-18T14:09:01.266Z,64.40
2018-10-18T14:11:29.827Z,64.40
2018-10-18T14:13:58.416Z,64.90
2018-10-18T14:16:26.788Z,64.20
2018-10-18T14:18:55.167Z,65.70
2018-10-18T14:21:23.995Z,66.80
2018-10-18T14:23:52.369Z,65.50
2018-10-18T14:26:20.963Z,65.30
2018-10-18T14:28:49.193Z,66.40
2018-10-18T14:31:18.205Z,65.50
2018-10-18T14:33:46.557Z,64.70
2018-10-18T14:36:15.067Z,64.90
2018-10-18T14:38:43.715Z,65.10
2018-10-18T14:41:12.092Z,64.70
2018-10-18T14:43:40.821Z,64.90
2018-10-18T14:46:09.226Z,65.40
2018-10-18T14:48:38.532Z,65.70
2018-10-18T14:51:07.014Z,65.50
2018-10-18T14:53:36.556Z,64.50
2018-10-18T14:56:05.307Z,63.60
2018-10-18T14:58:33.858Z,62.10
2018-10-18T15:01:02.233Z,61.30
2018-10-18T15:03:30.690Z,61.90
2018-10-18T15:06:01.650Z,61.60
2018-10-18T15:08:30.057Z,61.90
2018-10-18T15:10:58.493Z,64.20
2018-10-18T15:13:27.013Z,65.50
2018-10-18T15:15:55.467Z,66.10
2018-10-18T15:18:24.480Z,67.10
2018-10-18T15:20:54.785Z,69.70
2018-10-18T15:23:23.308Z,73.00
2018-10-18T15:25:51.957Z,76.50
2018-10-18T15:28:20.353Z,83.10
2018-10-18T15:30:48.871Z,85.50
2018-10-18T15:33:17.408Z,88.90
2018-10-18T15:35:45.984Z,89.70
2018-10-18T15:38:14.724Z,90.50
2018-10-18T15:40:43.136Z,90.90
2018-10-18T15:43:11.625Z,91.50
2018-10-18T15:45:40.246Z,91.90
2018-10-18T15:48:08.999Z,92.40
2018-10-18T15:50:37.462Z,92.60
2018-10-18T15:53:06.357Z,92.70
2018-10-18T15:55:34.581Z,92.90
2018-10-18T15:58:03.071Z,93.10
2018-10-18T16:00:31.488Z,93.40
2018-10-18T16:03:00.069Z,93.40
2018-10-18T16:05:28.645Z,93.40
2018-10-18T16:07:57.361Z,93.70
2018-10-18T16:10:26.335Z,93.70
2018-10-18T16:12:55.043Z,93.90
2018-10-18T16:15:26.242Z,93.90
2018-10-18T16:17:55.324Z,94.00
2018-10-18T16:20:23.863Z,94.60
2018-10-18T16:22:52.403Z,94.30
2018-10-18T16:25:20.789Z,93.90
2018-10-18T16:27:49.194Z,94.00
2018-10-18T16:30:17.825Z,94.30
2018-10-18T16:32:47.538Z,94.30
2018-10-18T16:35:18.412Z,94.10
2018-10-18T16:37:47.102Z,94.10
2018-10-18T16:40:16.075Z,93.20
2018-10-18T16:42:44.988Z,92.40
2018-10-18T16:45:19.152Z,91.90
2018-10-18T16:47:48.912Z,91.80
2018-10-18T16:50:21.848Z,90.50
2018-10-18T16:52:51.943Z,90.10
2018-10-18T16:55:27.217Z,89.40
2018-10-18T16:58:00.903Z,89.60
2018-10-18T17:00:31.691Z,89.80
2018-10-18T17:05:41.024Z,89.20
2018-10-18T17:08:10.281Z,89.40
2018-10-18T17:10:41.046Z,89.00
2018-10-18T17:13:11.683Z,89.60
2018-10-18T17:15:41.207Z,90.10
2018-10-18T17:18:11.351Z,90.10
2018-10-18T17:20:41.168Z,90.60
2018-10-18T17:23:11.814Z,90.90
2018-10-18T17:25:41.720Z,91.20
2018-10-18T17:28:11.510Z,91.50
2018-10-18T17:30:40.742Z,91.90
2018-10-18T17:33:11.731Z,92.10
2018-10-18T17:35:46.656Z,92.40
2018-10-18T17:38:17.946Z,92.70
2018-10-18T17:40:48.318Z,93.00
2018-10-18T17:43:22.395Z,93.00
2018-10-18T17:45:52.681Z,93.00
2018-10-18T17:48:21.313Z,93.20
2018-10-18T17:50:52.434Z,93.00
2018-10-18T17:53:21.565Z,93.00
2018-10-18T17:55:50.429Z,93.00
2018-10-18T17:58:21.112Z,92.00
2018-10-18T18:00:52.077Z,91.00
2018-10-18T18:03:21.739Z,90.90
2018-10-18T18:05:52.127Z,90.80
2018-10-18T18:08:24.420Z,90.80
2018-10-18T18:10:54.279Z,91.00
2018-10-18T18:13:24.650Z,91.00
2018-10-18T18:15:56.168Z,91.30
2018-10-18T18:18:28.113Z,91.30
2018-10-18T18:21:04.441Z,91.90
2018-10-18T18:23:35.629Z,92.70
2018-10-18T18:26:07.109Z,93.30
2018-10-18T18:28:37.755Z,93.90
2018-10-18T18:31:07.224Z,94.70
2018-10-18T18:33:36.878Z,95.10
2018-10-18T18:36:06.266Z,95.60
2018-10-18T18:38:38.084Z,95.80
2018-10-18T18:41:08.889Z,96.10
2018-10-18T18:43:44.113Z,96.30
2018-10-18T18:46:20.529Z,96.50
2018-10-18T18:48:51.959Z,96.80
2018-10-18T18:51:22.684Z,96.80
2018-10-18T18:53:52.105Z,96.80
2018-10-18T18:56:23.059Z,96.80
2018-10-18T18:58:51.585Z,96.90
2018-10-18T19:01:22.180Z,96.90
2018-10-18T19:03:50.760Z,96.80
2018-10-18T19:06:19.356Z,96.80
2018-10-18T19:08:47.818Z,97.00
2018-10-18T19:11:17.221Z,97.20
2018-10-18T19:13:45.764Z,97.10
2018-10-18T19:16:14.389Z,96.80
2018-10-18T19:18:43.039Z,97.10
2018-10-18T19:21:11.740Z,97.20
2018-10-18T19:23:40.698Z,96.90
2018-10-18T19:26:10.008Z,96.90
2018-10-18T19:28:41.267Z,96.90
2018-10-18T19:31:10.696Z,96.50
2018-10-18T19:33:42.019Z,95.60
2018-10-18T19:36:11.187Z,95.30
2018-10-18T19:38:40.271Z,95.90
2018-10-18T19:41:09.511Z,96.60
2018-10-18T19:43:40.262Z,97.10
2018-10-18T19:46:09.597Z,96.30
2018-10-18T19:48:38.073Z,96.30
2018-10-18T19:51:07.176Z,96.40
2018-10-18T19:53:37.221Z,96.60
2018-10-18T19:56:07.444Z,96.40
2018-10-18T19:58:36.096Z,95.90
2018-10-18T20:01:05.668Z,95.80
2018-10-18T20:03:34.245Z,95.30
2018-10-18T20:06:02.713Z,94.70
2018-10-18T20:08:34.341Z,94.90
2018-10-18T20:11:02.903Z,94.60
2018-10-18T20:13:31.818Z,93.80
2018-10-18T20:16:01.133Z,92.70
2018-10-18T20:18:29.956Z,92.70
2018-10-18T20:20:58.463Z,92.40
2018-10-18T20:23:27.332Z,92.70
2018-10-18T20:25:56.141Z,91.70
2018-10-18T20:28:24.372Z,91.30
2018-10-18T20:30:54.191Z,91.00
2018-10-18T20:33:22.670Z,90.70
2018-10-18T20:35:51.437Z,90.50
2018-10-18T20:38:19.930Z,91.00
2018-10-18T20:40:48.839Z,90.30
2018-10-18T20:43:17.278Z,89.40
2018-10-18T20:45:45.864Z,88.50
2018-10-18T20:48:14.369Z,88.40
2018-10-18T20:50:43.929Z,89.50
2018-10-18T20:53:12.582Z,88.70
2018-10-18T20:55:41.002Z,88.10
2018-10-18T20:58:09.445Z,88.40
2018-10-18T21:00:37.975Z,88.30
2018-10-18T21:03:06.641Z,88.00
2018-10-18T21:05:35.244Z,88.10
2018-10-18T21:08:03.755Z,87.00
2018-10-18T21:10:34.135Z,86.60
2018-10-18T21:13:02.953Z,87.00
2018-10-18T21:15:31.301Z,87.00
2018-10-18T21:18:00.776Z,87.50
2018-10-18T21:20:29.678Z,88.10
2018-10-18T21:22:58.596Z,87.00
2018-10-18T21:25:27.847Z,86.90
2018-10-18T21:27:56.497Z,86.90
2018-10-18T21:30:26.070Z,87.00
2018-10-18T21:32:54.871Z,86.90
2018-10-18T21:35:23.288Z,86.90
2018-10-18T21:37:51.697Z,86.90
2018-10-18T21:40:20.372Z,86.20
2018-10-18T21:42:48.846Z,86.80
2018-10-18T21:45:18.390Z,86.90
2018-10-18T21:47:47.203Z,85.70
2018-10-18T21:50:15.505Z,86.40
2018-10-18T21:52:44.540Z,86.40
2018-10-18T21:55:12.972Z,86.60
2018-10-18T21:57:41.405Z,86.90
2018-10-18T22:00:14.286Z,86.70
2018-10-18T22:02:43.735Z,86.70
2018-10-18T22:05:13.297Z,87.60
2018-10-18T22:07:42.628Z,87.40
2018-10-18T22:10:11.571Z,88.00
2018-10-18T22:12:40.074Z,88.90
2018-10-18T22:15:10.541Z,88.90
2018-10-18T22:17:39.068Z,89.40
2018-10-18T22:20:08.432Z,90.20
2018-10-18T22:22:37.114Z,90.40
2018-10-18T22:25:06.925Z,90.80
2018-10-18T22:27:35.352Z,91.20
2018-10-18T22:30:04.537Z,91.80
2018-10-18T22:32:33.325Z,92.10
2018-10-18T22:35:01.994Z,92.10
2018-10-18T22:37:30.719Z,92.10
2018-10-18T22:39:59.076Z,92.50
2018-10-18T22:42:27.628Z,92.80
2018-10-18T22:44:56.057Z,92.90
2018-10-18T22:47:24.462Z,93.30
2018-10-18T22:49:52.885Z,93.60
2018-10-18T22:52:21.263Z,93.70
2018-10-18T22:54:49.666Z,94.20
2018-10-18T22:57:18.600Z,94.50
2018-10-18T22:59:47.248Z,94.70
2018-10-18T23:02:16.505Z,95.00
2018-10-18T23:04:44.940Z,95.30
2018-10-18T23:07:13.429Z,95.70
2018-10-18T23:09:42.188Z,95.70
2018-10-18T23:12:10.661Z,95.70
2018-10-18T23:14:39.885Z,95.70
2018-10-18T23:17:08.421Z,95.80
2018-10-18T23:19:36.672Z,95.80
2018-10-18T23:22:06.873Z,95.80
2018-10-18T23:24:36.574Z,95.80
2018-10-18T23:27:06.420Z,95.80
2018-10-18T23:29:34.896Z,95.80
2018-10-18T23:32:03.333Z,95.80
2018-10-18T23:34:31.803Z,95.60
2018-10-18T23:37:01.012Z,95.60
2018-10-18T23:39:32.508Z,95.60
2018-10-18T23:42:01.735Z,95.60
2018-10-18T23:44:30.222Z,95.60
2018-10-18T23:46:58.678Z,95.60
2018-10-18T23:49:27.008Z,95.50
2018-10-18T23:51:55.407Z,95.40
2018-10-18T23:54:23.820Z,95.30
2018-10-18T23:56:52.324Z,95.40
2018-10-18T23:59:20.949Z,95.30
